Time;durP1;ratioP1;P1;durP2;ratioP2;P2;SDS_P1;SDS_P2;PMS_P1;PMS_P2;Temp;Humidity;BMP_temperature;BMP_pressure;BME280_temperature;BME280_humidity;BME280_pressure;Samples;Min_cycle;Max_cycle;Signal;HPM_P1;HPM_P2
2021/06/12 00:01:26;;;;;;;12.50;11.07;;;20.80;99.90;;;;;;5033562;28;20838;-77
2021/06/12 00:03:52;;;;;;;12.73;9.90;;;20.80;99.90;;;;;;5029037;28;20442;-78
2021/06/12 00:06:20;;;;;;;12.50;10.20;;;20.80;99.90;;;;;;5031929;28;20504;-77
2021/06/12 00:08:46;;;;;;;11.33;9.93;;;20.80;99.90;;;;;;5023496;28;20489;-77
2021/06/12 00:11:12;;;;;;;12.17;9.73;;;20.80;99.90;;;;;;5016227;28;20183;-77
2021/06/12 00:13:38;;;;;;;11.43;10.03;;;20.70;99.90;;;;;;5023287;28;20666;-77
2021/06/12 00:16:06;;;;;;;9.67;8.67;;;20.70;99.90;;;;;;5013705;28;20469;-77
2021/06/12 00:18:34;;;;;;;10.97;9.87;;;20.60;99.90;;;;;;5014243;28;20514;-77
2021/06/12 00:21:02;;;;;;;10.50;9.50;;;20.60;99.90;;;;;;5021885;28;20462;-77
2021/06/12 00:23:30;;;;;;;10.57;9.47;;;20.60;99.90;;;;;;5013282;28;20442;-78
2021/06/12 00:26:02;;;;;;;11.87;10.60;;;20.60;99.90;;;;;;5024709;28;20466;-77
2021/06/12 00:28:28;;;;;;;11.87;9.90;;;20.50;99.90;;;;;;5033171;28;20474;-77
2021/06/12 00:31:11;;;;;;;12.37;11.13;;;20.50;99.90;;;;;;5013532;28;20521;-77
2021/06/12 00:33:37;;;;;;;11.67;9.97;;;20.50;99.90;;;;;;4996579;28;20438;-77
2021/06/12 00:36:03;;;;;;;12.00;9.87;;;20.50;99.90;;;;;;5023380;28;20469;-77
2021/06/12 00:38:29;;;;;;;12.30;9.70;;;20.40;99.90;;;;;;5006699;28;20822;-77
2021/06/12 00:41:00;;;;;;;11.70;10.50;;;20.40;99.90;;;;;;5036600;28;20569;-77
2021/06/12 00:43:26;;;;;;;11.83;10.20;;;20.40;99.90;;;;;;5028358;28;20433;-77
2021/06/12 00:45:55;;;;;;;9.80;8.80;;;20.40;99.90;;;;;;5017190;28;20509;-77
2021/06/12 00:48:22;;;;;;;9.57;8.03;;;20.40;99.90;;;;;;5017428;28;20432;-77
2021/06/12 00:50:47;;;;;;;9.10;8.20;;;20.40;99.90;;;;;;5035032;28;20447;-77
2021/06/12 00:53:18;;;;;;;9.73;8.73;;;20.40;99.90;;;;;;5018946;28;20429;-77
2021/06/12 00:55:50;;;;;;;12.23;9.10;;;20.50;99.90;;;;;;5036915;28;20505;-77
2021/06/12 00:58:19;;;;;;;10.93;9.50;;;20.50;99.90;;;;;;5021345;28;20520;-77
2021/06/12 01:00:47;;;;;;;11.23;8.23;;;20.50;99.90;;;;;;5033748;28;20437;-77
2021/06/12 01:03:16;;;;;;;10.97;9.33;;;20.50;99.90;;;;;;5035412;28;20445;-77
2021/06/12 01:05:44;;;;;;;10.50;9.47;;;20.60;99.90;;;;;;5033750;28;20515;-77
2021/06/12 01:08:10;;;;;;;9.17;8.27;;;20.60;99.90;;;;;;5016790;28;20423;-77
2021/06/12 01:10:39;;;;;;;12.73;9.10;;;20.60;99.90;;;;;;4997568;28;20437;-77
2021/06/12 01:13:31;;;;;;;10.87;9.30;;;20.60;99.90;;;;;;5035926;28;20422;-77
2021/06/12 01:16:12;;;;;;;11.43;9.50;;;20.70;99.90;;;;;;5012490;28;20478;-77
2021/06/12 01:18:42;;;;;;;9.53;8.63;;;20.70;99.90;;;;;;5035575;28;20455;-77
2021/06/12 01:21:37;;;;;;;13.00;10.10;;;20.80;99.90;;;;;;5017123;28;20438;-77
2021/06/12 01:24:40;;;;;;;11.77;9.53;;;20.70;99.90;;;;;;5015985;28;20454;-77
2021/06/12 01:27:23;;;;;;;10.03;8.67;;;20.70;99.90;;;;;;5028901;28;20481;-77
2021/06/12 01:30:04;;;;;;;11.13;9.07;;;20.70;99.90;;;;;;5035866;28;20432;-77
2021/06/12 01:32:33;;;;;;;9.37;8.47;;;20.70;99.90;;;;;;5036367;28;20433;-77
2021/06/12 01:35:05;;;;;;;9.70;8.13;;;20.70;99.90;;;;;;5035854;28;20508;-77
2021/06/12 01:37:35;;;;;;;11.23;8.57;;;20.60;99.90;;;;;;5035908;28;20454;-77
2021/06/12 01:40:08;;;;;;;12.50;8.40;;;20.70;99.90;;;;;;5035798;28;20415;-77
2021/06/12 01:42:39;;;;;;;9.90;7.67;;;20.60;99.90;;;;;;5035512;28;20744;-77
2021/06/12 01:45:12;;;;;;;13.03;7.90;;;20.70;99.90;;;;;;5036163;28;20406;-77
2021/06/12 01:47:38;;;;;;;10.20;8.60;;;20.60;99.90;;;;;;5015958;28;20879;-77
2021/06/12 01:50:09;;;;;;;11.77;7.53;;;20.60;99.90;;;;;;5027024;28;20456;-77
2021/06/12 01:52:40;;;;;;;9.27;8.10;;;20.60;99.90;;;;;;5036028;28;20433;-77
2021/06/12 01:55:11;;;;;;;10.20;7.60;;;20.60;99.90;;;;;;5034420;28;20409;-77
2021/06/12 01:57:43;;;;;;;11.23;7.83;;;20.60;99.90;;;;;;5035912;28;20566;-77
2021/06/12 02:00:11;;;;;;;8.80;7.30;;;20.70;99.90;;;;;;5035344;28;20818;-77
2021/06/12 02:02:42;;;;;;;11.07;8.60;;;20.70;99.90;;;;;;5015911;28;20741;-77
2021/06/12 02:05:13;;;;;;;10.10;7.63;;;20.60;99.90;;;;;;5032316;28;20833;-77
2021/06/12 02:07:43;;;;;;;9.63;7.50;;;20.60;99.90;;;;;;5035183;28;20787;-77
2021/06/12 02:10:20;;;;;;;11.67;8.60;;;20.60;99.90;;;;;;5034513;28;20411;-77
2021/06/12 02:12:50;;;;;;;10.13;8.97;;;20.60;99.90;;;;;;5015528;28;20802;-77
2021/06/12 02:15:16;;;;;;;8.50;7.60;;;20.70;99.90;;;;;;5017627;28;20915;-77
2021/06/12 02:17:44;;;;;;;11.90;9.00;;;20.60;99.90;;;;;;5034273;28;21069;-77
2021/06/12 02:20:13;;;;;;;10.50;8.90;;;20.70;99.90;;;;;;5033977;28;20922;-77
2021/06/12 02:22:51;;;;;;;11.27;8.60;;;20.70;99.90;;;;;;5017827;28;20484;-77
2021/06/12 02:25:20;;;;;;;11.40;9.20;;;20.70;99.90;;;;;;5002307;28;20547;-78
2021/06/12 02:27:56;;;;;;;10.20;7.70;;;20.70;99.90;;;;;;5045033;28;20940;-77
2021/06/12 02:30:29;;;;;;;11.30;8.70;;;20.60;99.90;;;;;;5015311;28;20461;-77
2021/06/12 02:33:05;;;;;;;8.87;7.80;;;20.60;99.90;;;;;;5015592;28;20812;-77
2021/06/12 02:35:34;;;;;;;10.13;8.00;;;20.60;99.90;;;;;;5022294;28;20536;-77
2021/06/12 02:38:05;;;;;;;10.20;8.30;;;20.60;99.90;;;;;;5030230;28;20493;-77
2021/06/12 02:40:31;;;;;;;10.60;8.53;;;20.60;99.90;;;;;;5015319;28;20424;-77
2021/06/12 02:42:59;;;;;;;9.57;8.20;;;20.60;99.90;;;;;;5022942;28;20443;-77
2021/06/12 02:45:25;;;;;;;8.93;8.03;;;20.50;99.90;;;;;;5034725;28;20422;-77
2021/06/12 02:47:57;;;;;;;9.80;8.57;;;20.50;99.90;;;;;;5032896;28;20433;-77
2021/06/12 02:50:29;;;;;;;9.40;7.40;;;20.50;99.90;;;;;;5034975;28;20432;-77
2021/06/12 02:53:01;;;;;;;9.50;8.23;;;20.50;99.90;;;;;;5031953;28;20879;-77
2021/06/12 02:55:31;;;;;;;11.20;8.00;;;20.50;99.90;;;;;;5015353;28;20442;-77
2021/06/12 02:57:58;;;;;;;8.50;7.50;;;20.50;99.90;;;;;;5031101;28;20454;-77
2021/06/12 03:00:25;;;;;;;8.73;7.83;;;20.50;99.90;;;;;;5014312;28;20781;-77
2021/06/12 03:02:58;;;;;;;9.13;8.10;;;20.50;99.90;;;;;;5014829;28;20470;-77
2021/06/12 03:05:26;;;;;;;9.60;8.30;;;20.50;99.90;;;;;;5017757;28;20431;-77
2021/06/12 03:07:55;;;;;;;11.30;7.80;;;20.50;99.90;;;;;;5034113;28;20776;-77
2021/06/12 03:10:31;;;;;;;13.03;8.80;;;20.50;99.90;;;;;;5023101;28;20442;-77
2021/06/12 03:13:04;;;;;;;10.50;7.23;;;20.40;99.90;;;;;;5014567;28;20748;-77
2021/06/12 03:15:34;;;;;;;9.73;6.90;;;20.40;99.90;;;;;;5024958;28;20571;-77
2021/06/12 03:18:03;;;;;;;7.37;6.57;;;20.40;99.90;;;;;;5032384;28;20464;-77
2021/06/12 03:20:32;;;;;;;9.30;7.33;;;20.30;99.90;;;;;;5032643;28;20426;-77
2021/06/12 03:23:02;;;;;;;7.73;6.17;;;20.30;99.90;;;;;;5033247;28;20435;-77
2021/06/12 03:25:31;;;;;;;6.70;6.00;;;20.30;99.90;;;;;;5017340;28;20421;-77
2021/06/12 03:28:00;;;;;;;9.07;6.27;;;20.30;99.90;;;;;;5033791;28;20657;-78
2021/06/12 03:30:28;;;;;;;12.20;5.87;;;20.30;99.90;;;;;;5022293;28;20545;-77
2021/06/12 03:33:02;;;;;;;7.60;5.13;;;20.30;99.90;;;;;;5014298;28;20983;-77
2021/06/12 03:35:31;;;;;;;9.77;5.67;;;20.30;99.90;;;;;;5026326;28;20446;-78
2021/06/12 03:37:58;;;;;;;6.53;6.03;;;20.20;99.90;;;;;;5026379;28;20481;-77
2021/06/12 03:40:26;;;;;;;8.80;5.90;;;20.20;99.90;;;;;;5024692;28;20434;-77
2021/06/12 03:42:54;;;;;;;6.13;5.53;;;20.10;99.90;;;;;;5027612;28;20424;-77
2021/06/12 03:45:23;;;;;;;8.00;5.50;;;20.10;99.90;;;;;;5013551;28;20509;-77
2021/06/12 03:47:51;;;;;;;7.03;5.50;;;20.10;99.90;;;;;;5015540;28;20544;-77
2021/06/12 03:50:18;;;;;;;7.20;4.97;;;20.10;99.90;;;;;;5003715;28;20772;-77
2021/06/12 03:52:51;;;;;;;9.20;5.90;;;20.10;99.90;;;;;;5033374;28;20449;-77
2021/06/12 03:55:21;;;;;;;7.57;5.37;;;20.10;99.90;;;;;;5027615;28;20838;-77
2021/06/12 03:57:48;;;;;;;6.13;5.47;;;20.00;99.90;;;;;;5029381;28;20472;-77
2021/06/12 04:00:17;;;;;;;6.27;4.93;;;20.00;99.90;;;;;;5018256;28;20536;-78
2021/06/12 04:02:43;;;;;;;5.77;5.23;;;20.10;99.90;;;;;;5022222;28;20485;-77
2021/06/12 04:05:10;;;;;;;6.77;5.90;;;20.10;99.90;;;;;;5025047;28;20507;-77
2021/06/12 04:07:37;;;;;;;12.00;6.17;;;20.00;99.90;;;;;;5049229;28;20436;-77
2021/06/12 04:10:07;;;;;;;7.20;5.80;;;20.00;99.90;;;;;;5023081;28;20428;-77
2021/06/12 04:12:33;;;;;;;8.67;5.57;;;20.00;99.90;;;;;;5015332;28;20956;-77
2021/06/12 04:15:01;;;;;;;7.23;5.87;;;20.00;99.90;;;;;;5020479;28;20905;-77
2021/06/12 04:17:27;;;;;;;7.00;5.17;;;20.00;99.90;;;;;;5017629;28;20471;-77
2021/06/12 04:19:55;;;;;;;7.10;5.57;;;20.00;99.90;;;;;;5033495;28;20530;-77
2021/06/12 04:22:21;;;;;;;8.63;5.70;;;20.00;99.90;;;;;;5037369;28;20468;-77
2021/06/12 04:24:47;;;;;;;7.50;6.40;;;19.90;99.90;;;;;;5020084;28;20471;-77
2021/06/12 04:27:13;;;;;;;7.07;6.17;;;19.90;99.90;;;;;;5010073;28;20466;-77
2021/06/12 04:29:39;;;;;;;6.53;5.93;;;19.90;99.90;;;;;;4989981;28;20470;-81
2021/06/12 04:32:06;;;;;;;6.47;5.87;;;19.90;99.90;;;;;;4983931;28;20793;-81
2021/06/12 04:34:34;;;;;;;9.50;6.17;;;20.00;99.90;;;;;;5014348;28;20492;-81
2021/06/12 04:37:02;;;;;;;11.47;6.83;;;19.90;99.90;;;;;;4980995;28;20463;-81
2021/06/12 04:39:29;;;;;;;8.90;7.07;;;20.00;99.90;;;;;;5012082;28;20524;-81
2021/06/12 04:41:58;;;;;;;8.73;7.00;;;20.00;99.90;;;;;;5017171;28;20734;-81
2021/06/12 04:44:24;;;;;;;7.93;6.67;;;20.00;99.90;;;;;;5000479;28;20453;-81
2021/06/12 04:46:53;;;;;;;10.10;7.60;;;19.90;99.90;;;;;;5007164;28;20758;-81
2021/06/12 04:49:19;;;;;;;9.93;7.90;;;19.90;99.90;;;;;;4997001;28;20465;-81
2021/06/12 04:51:45;;;;;;;9.40;7.90;;;20.00;99.90;;;;;;5012956;28;20815;-81
2021/06/12 04:54:10;;;;;;;12.97;8.60;;;19.90;99.90;;;;;;5014069;28;20424;-81
2021/06/12 04:56:38;;;;;;;11.83;8.40;;;19.90;99.90;;;;;;4996914;28;20431;-81
2021/06/12 04:59:06;;;;;;;11.27;8.53;;;19.90;99.90;;;;;;4997404;28;20464;-81
2021/06/12 05:01:37;;;;;;;10.50;8.10;;;20.00;99.90;;;;;;4980715;28;20405;-81
2021/06/12 05:04:03;;;;;;;9.60;7.83;;;20.00;99.90;;;;;;4996046;28;20470;-81
2021/06/12 05:06:29;;;;;;;14.10;8.83;;;20.00;99.90;;;;;;5011573;28;20434;-81
2021/06/12 05:09:00;;;;;;;10.03;8.63;;;20.10;99.90;;;;;;4997280;28;20485;-80
2021/06/12 05:11:27;;;;;;;13.20;8.10;;;20.10;99.90;;;;;;4997701;28;20429;-81
2021/06/12 05:13:55;;;;;;;10.93;8.20;;;20.20;99.90;;;;;;5017116;28;20428;-81
2021/06/12 05:16:23;;;;;;;12.50;8.40;;;20.20;99.90;;;;;;4982006;28;20495;-80
2021/06/12 05:18:49;;;;;;;12.43;9.27;;;20.20;99.90;;;;;;5015944;28;20461;-80
2021/06/12 05:21:17;;;;;;;14.00;8.57;;;20.30;99.90;;;;;;5016456;28;20459;-81
2021/06/12 05:23:45;;;;;;;13.10;8.97;;;20.30;99.90;;;;;;4983636;28;20522;-81
2021/06/12 05:26:14;;;;;;;12.23;9.20;;;20.30;99.90;;;;;;4980804;28;20501;-81
2021/06/12 05:28:42;;;;;;;10.63;9.53;;;20.40;99.90;;;;;;5009707;28;20462;-80
2021/06/12 05:31:10;;;;;;;15.60;9.43;;;20.30;99.90;;;;;;4996189;28;20809;-81
2021/06/12 05:33:36;;;;;;;13.00;9.80;;;20.20;99.90;;;;;;5015716;28;20422;-81
2021/06/12 05:36:04;;;;;;;13.90;10.33;;;20.20;99.90;;;;;;5013606;28;20421;-80
2021/06/12 05:38:33;;;;;;;14.10;9.70;;;20.20;99.90;;;;;;5013807;28;20466;-81
2021/06/12 05:41:01;;;;;;;11.30;9.90;;;20.20;99.90;;;;;;4998398;28;20499;-80
2021/06/12 05:43:27;;;;;;;11.20;10.00;;;20.20;99.90;;;;;;4997093;28;20434;-81
2021/06/12 05:45:54;;;;;;;12.83;10.93;;;20.10;99.90;;;;;;5012242;28;20426;-81
2021/06/12 05:48:25;;;;;;;12.90;10.53;;;20.10;99.90;;;;;;5015186;28;20466;-81
2021/06/12 05:50:51;;;;;;;15.93;9.87;;;20.10;99.90;;;;;;5014854;28;20512;-81
2021/06/12 05:53:18;;;;;;;16.10;11.33;;;20.10;99.90;;;;;;5015560;28;20444;-81
2021/06/12 05:55:46;;;;;;;12.60;10.60;;;20.00;99.90;;;;;;5030990;28;20464;-80
2021/06/12 05:58:14;;;;;;;14.97;11.20;;;20.00;99.90;;;;;;5015078;28;20468;-81
2021/06/12 06:00:43;;;;;;;11.50;10.40;;;20.10;99.90;;;;;;4985134;28;20967;-81
2021/06/12 06:03:08;;;;;;;17.60;11.30;;;20.10;99.90;;;;;;4979236;28;20427;-80
2021/06/12 06:05:34;;;;;;;15.10;12.13;;;20.20;99.90;;;;;;4996539;28;20427;-80
2021/06/12 06:08:00;;;;;;;15.20;12.10;;;20.30;99.90;;;;;;4996896;28;20493;-80
2021/06/12 06:10:26;;;;;;;13.83;12.33;;;20.30;99.90;;;;;;5014380;28;20464;-81
2021/06/12 06:13:05;;;;;;;16.17;13.37;;;20.30;99.90;;;;;;5014827;28;20779;-81
2021/06/12 06:15:31;;;;;;;13.60;12.30;;;20.30;99.90;;;;;;4995510;28;20506;-81
2021/06/12 06:17:57;;;;;;;16.97;14.20;;;20.30;99.90;;;;;;4996444;28;20501;-81
2021/06/12 06:20:29;;;;;;;15.20;13.13;;;20.30;99.90;;;;;;5002064;28;20430;-81
2021/06/12 06:22:55;;;;;;;15.80;13.63;;;20.40;99.90;;;;;;5014863;28;20887;-80
2021/06/12 06:25:23;;;;;;;15.90;14.20;;;20.50;99.90;;;;;;4998359;28;20475;-81
2021/06/12 06:27:51;;;;;;;16.30;14.63;;;20.60;99.90;;;;;;5013794;28;20479;-80
2021/06/12 06:30:22;;;;;;;18.57;14.50;;;20.60;99.90;;;;;;5014776;28;20926;-81
2021/06/12 06:32:48;;;;;;;17.63;15.70;;;20.60;99.90;;;;;;5019952;28;20438;-80
2021/06/12 06:35:14;;;;;;;18.87;16.07;;;20.60;99.90;;;;;;4978039;28;20454;-80
2021/06/12 06:37:44;;;;;;;17.57;15.87;;;20.60;99.90;;;;;;4988154;28;20559;-80
2021/06/12 06:40:12;;;;;;;17.20;15.40;;;20.50;99.90;;;;;;5028200;28;20500;-81
2021/06/12 06:42:43;;;;;;;18.83;17.03;;;20.50;99.90;;;;;;5007481;28;20513;-80
2021/06/12 06:45:10;;;;;;;20.63;18.70;;;20.50;99.90;;;;;;5012449;28;20976;-80
2021/06/12 06:47:36;;;;;;;19.70;17.87;;;20.50;99.90;;;;;;5001781;28;20467;-80
2021/06/12 06:50:06;;;;;;;20.20;18.23;;;20.50;99.90;;;;;;4993938;28;20439;-80
2021/06/12 06:52:33;;;;;;;20.87;18.70;;;20.60;99.90;;;;;;4992665;28;20449;-80
2021/06/12 06:55:01;;;;;;;21.17;19.03;;;20.60;99.90;;;;;;5002483;28;20891;-81
2021/06/12 06:57:31;;;;;;;20.73;18.83;;;20.70;99.90;;;;;;5012819;28;20524;-81
2021/06/12 06:59:59;;;;;;;19.50;17.47;;;20.70;99.90;;;;;;5007437;28;20789;-80
2021/06/12 07:02:25;;;;;;;19.67;17.77;;;20.70;99.90;;;;;;5012413;28;21021;-80
2021/06/12 07:04:53;;;;;;;20.73;18.73;;;20.60;99.90;;;;;;4996792;28;20434;-80
2021/06/12 07:07:19;;;;;;;21.23;19.07;;;20.50;99.90;;;;;;4994759;28;20430;-80
2021/06/12 07:09:48;;;;;;;20.03;17.93;;;20.40;99.90;;;;;;5008252;28;20439;-80
2021/06/12 07:12:16;;;;;;;21.37;19.03;;;20.40;99.90;;;;;;5011327;28;20441;-80
2021/06/12 07:14:44;;;;;;;20.30;17.73;;;20.40;99.90;;;;;;5012285;28;20453;-81
2021/06/12 07:17:12;;;;;;;21.50;19.30;;;20.40;99.90;;;;;;4995651;28;20431;-80
2021/06/12 07:19:39;;;;;;;23.50;21.27;;;20.30;99.90;;;;;;4996176;28;20426;-80
2021/06/12 07:22:05;;;;;;;23.27;21.07;;;20.30;99.90;;;;;;5011804;28;20445;-80
2021/06/12 07:24:33;;;;;;;23.53;21.27;;;20.50;99.90;;;;;;5002114;28;20559;-80
2021/06/12 07:26:59;;;;;;;23.80;20.90;;;20.60;99.90;;;;;;5018883;28;20960;-80
2021/06/12 07:29:26;;;;;;;23.33;21.10;;;20.60;99.90;;;;;;5031866;28;20441;-81
2021/06/12 07:31:54;;;;;;;25.07;22.67;;;20.70;99.90;;;;;;5031492;28;20432;-80
2021/06/12 07:34:23;;;;;;;23.63;21.30;;;20.70;99.90;;;;;;5001651;28;20416;-94
2021/06/12 07:36:51;;;;;;;25.57;23.17;;;20.70;99.90;;;;;;5035862;28;20444;-94
2021/06/12 07:39:17;;;;;;;26.57;23.93;;;20.70;99.90;;;;;;5035975;28;20979;-93
2021/06/12 07:41:43;;;;;;;26.07;23.33;;;20.70;99.90;;;;;;5032565;28;20439;-94
2021/06/12 07:44:11;;;;;;;24.53;22.23;;;20.70;99.90;;;;;;5015234;28;20518;-95
2021/06/12 07:46:38;;;;;;;25.87;23.33;;;20.70;99.90;;;;;;4998472;28;20445;-94
2021/06/12 07:49:04;;;;;;;25.67;23.17;;;20.80;99.90;;;;;;5016236;28;20432;-94
2021/06/12 07:51:33;;;;;;;25.07;22.57;;;20.70;99.90;;;;;;5025618;28;20845;-86
2021/06/12 07:54:00;;;;;;;26.10;22.03;;;20.70;99.90;;;;;;5017606;28;20427;-87
2021/06/12 07:56:26;;;;;;;27.70;24.80;;;20.60;99.90;;;;;;5010199;28;20535;-87
2021/06/12 07:58:52;;;;;;;27.20;24.53;;;20.60;99.90;;;;;;5014264;28;20461;-90
2021/06/12 08:01:21;;;;;;;26.20;23.67;;;20.60;99.90;;;;;;4981790;28;20525;-90
2021/06/12 08:03:47;;;;;;;26.07;23.60;;;20.50;99.90;;;;;;5014007;28;20860;-90
2021/06/12 08:06:13;;;;;;;25.60;23.07;;;20.40;99.90;;;;;;5000135;28;20426;-90
2021/06/12 08:08:39;;;;;;;25.47;22.83;;;20.40;99.90;;;;;;5017973;28;20481;-91
2021/06/12 08:11:09;;;;;;;24.70;22.40;;;20.20;99.90;;;;;;5017829;28;20482;-92
2021/06/12 08:13:35;;;;;;;23.10;21.00;;;20.30;99.90;;;;;;5017429;28;20435;-90
2021/06/12 08:16:05;;;;;;;23.80;21.57;;;20.30;99.90;;;;;;5000059;28;20472;-88
2021/06/12 08:18:32;;;;;;;25.00;22.00;;;20.20;99.90;;;;;;5021872;28;20486;-88
2021/06/12 08:21:01;;;;;;;23.40;21.20;;;20.20;99.90;;;;;;5033762;28;20443;-88
2021/06/12 08:23:28;;;;;;;23.30;21.10;;;20.20;99.90;;;;;;5027350;28;20439;-88
2021/06/12 08:25:54;;;;;;;24.17;21.70;;;20.20;99.90;;;;;;5013645;28;20883;-89
2021/06/12 08:28:20;;;;;;;26.47;23.33;;;20.20;99.90;;;;;;5016532;28;20503;-89
2021/06/12 08:30:48;;;;;;;25.23;22.70;;;20.20;99.90;;;;;;5029028;28;20460;-88
2021/06/12 08:33:17;;;;;;;25.60;22.47;;;20.10;99.90;;;;;;5032490;28;20957;-89
2021/06/12 08:35:43;;;;;;;23.73;21.47;;;20.10;99.90;;;;;;5017567;28;20499;-89
2021/06/12 08:38:12;;;;;;;24.70;22.20;;;20.00;99.90;;;;;;5015882;28;20482;-89
2021/06/12 08:40:38;;;;;;;24.20;21.60;;;20.10;99.90;;;;;;5015015;28;20438;-89
2021/06/12 08:43:07;;;;;;;26.77;23.90;;;20.10;99.90;;;;;;4997804;28;20780;-90
2021/06/12 08:45:36;;;;;;;23.17;20.93;;;20.10;99.90;;;;;;5014875;28;20404;-90
